Time;durP1;ratioP1;P1;durP2;ratioP2;P2;SDS_P1;SDS_P2;PMS_P1;PMS_P2;Temp;Humidity;BMP_temperature;BMP_pressure;BME280_temperature;BME280_humidity;BME280_pressure;Samples;Min_cycle;Max_cycle;Signal;HPM_P1;HPM_P2
2022/01/07 00:01:04;;;;;;;39.17;16.43;;;3.20;99.90;;;;;;5083636;28;20277;-72
2022/01/07 00:03:31;;;;;;;25.13;12.23;;;3.20;99.90;;;;;;5080675;28;20549;-72
2022/01/07 00:05:59;;;;;;;44.40;16.40;;;3.10;99.90;;;;;;5080293;28;20181;-72
2022/01/07 00:08:26;;;;;;;42.57;15.73;;;3.10;99.90;;;;;;5078608;28;20266;-72
2022/01/07 00:10:53;;;;;;;39.93;16.23;;;3.00;99.90;;;;;;5081380;28;20177;-73
2022/01/07 00:13:19;;;;;;;63.50;21.47;;;3.00;99.90;;;;;;5076684;28;20545;-72
2022/01/07 00:15:45;;;;;;;48.07;18.10;;;3.00;99.90;;;;;;5084199;28;20200;-72
2022/01/07 00:18:11;;;;;;;34.53;14.23;;;3.00;99.90;;;;;;5085831;28;20200;-73
2022/01/07 00:20:38;;;;;;;72.13;23.30;;;3.00;99.90;;;;;;5088863;28;20176;-73
2022/01/07 00:23:05;;;;;;;52.20;18.93;;;3.00;99.90;;;;;;5085972;28;20184;-73
2022/01/07 00:25:31;;;;;;;47.43;17.13;;;3.00;99.90;;;;;;5085625;28;20219;-72
2022/01/07 00:27:57;;;;;;;45.27;16.93;;;3.10;99.90;;;;;;5081978;28;21071;-72
2022/01/07 00:30:23;;;;;;;62.70;20.70;;;3.10;99.90;;;;;;5085296;28;20189;-72
2022/01/07 00:32:50;;;;;;;48.20;16.33;;;3.10;99.90;;;;;;5082951;28;20192;-72
2022/01/07 00:35:16;;;;;;;34.00;12.90;;;3.10;99.90;;;;;;5090227;28;20210;-72
2022/01/07 00:37:43;;;;;;;24.47;11.30;;;3.10;99.90;;;;;;5080016;28;20199;-72
2022/01/07 00:40:16;;;;;;;19.87;10.30;;;3.10;99.90;;;;;;5085260;28;20204;-72
2022/01/07 00:42:42;;;;;;;53.10;17.30;;;3.10;99.90;;;;;;5081990;28;20230;-72
2022/01/07 00:45:08;;;;;;;67.53;22.90;;;3.10;99.90;;;;;;5082921;28;20173;-72
2022/01/07 00:47:34;;;;;;;34.63;14.90;;;3.10;99.90;;;;;;5083024;28;20220;-72
2022/01/07 00:50:00;;;;;;;22.93;11.73;;;3.10;99.90;;;;;;5082075;28;20234;-72
2022/01/07 00:52:27;;;;;;;18.33;10.53;;;3.10;99.90;;;;;;5083127;28;20180;-72
2022/01/07 00:54:53;;;;;;;25.60;12.87;;;3.10;99.90;;;;;;5082450;28;20211;-72
2022/01/07 00:57:18;;;;;;;21.30;11.37;;;3.10;99.90;;;;;;5087817;28;20272;-72
2022/01/07 00:59:46;;;;;;;20.77;11.97;;;3.00;99.90;;;;;;5082750;28;20221;-72
2022/01/07 01:02:12;;;;;;;19.17;10.33;;;3.00;99.90;;;;;;5085329;28;20176;-72
2022/01/07 01:04:38;;;;;;;19.43;10.33;;;3.00;99.90;;;;;;5081428;28;20246;-72
2022/01/07 01:07:04;;;;;;;17.53;10.70;;;3.00;99.90;;;;;;5073228;28;20188;-72
2022/01/07 01:09:30;;;;;;;15.27;9.53;;;3.00;99.90;;;;;;5082709;28;20257;-72
2022/01/07 01:11:57;;;;;;;18.83;9.17;;;3.00;99.90;;;;;;5083992;28;20181;-72
2022/01/07 01:14:24;;;;;;;19.60;9.80;;;3.10;99.90;;;;;;5080933;28;20201;-72
2022/01/07 01:16:51;;;;;;;20.33;10.27;;;3.10;99.90;;;;;;5084879;28;20239;-72
2022/01/07 01:19:17;;;;;;;16.47;9.50;;;3.10;99.90;;;;;;5083152;28;20205;-72
2022/01/07 01:21:44;;;;;;;17.27;10.23;;;3.10;99.90;;;;;;5083563;28;20283;-72
2022/01/07 01:24:10;;;;;;;21.47;10.07;;;3.10;99.90;;;;;;5085125;28;20177;-72
2022/01/07 01:26:36;;;;;;;13.97;9.30;;;3.10;99.90;;;;;;5083882;28;20582;-72
2022/01/07 01:29:02;;;;;;;15.90;9.87;;;3.10;99.90;;;;;;5084270;28;20234;-72
2022/01/07 01:31:30;;;;;;;17.83;8.93;;;3.10;99.90;;;;;;5081309;28;20274;-72
2022/01/07 01:33:56;;;;;;;19.73;9.93;;;3.10;99.90;;;;;;5087234;28;20189;-72
2022/01/07 01:36:23;;;;;;;19.50;9.97;;;3.10;99.90;;;;;;5073994;28;20203;-72
2022/01/07 01:38:49;;;;;;;23.07;11.50;;;3.10;99.90;;;;;;5087218;28;20672;-72
2022/01/07 01:41:14;;;;;;;16.43;10.13;;;3.20;99.90;;;;;;5080043;28;20184;-72
2022/01/07 01:43:40;;;;;;;15.97;10.20;;;3.10;99.90;;;;;;5082523;28;20643;-72
2022/01/07 01:46:06;;;;;;;16.93;9.53;;;3.00;99.90;;;;;;5086857;28;20554;-72
2022/01/07 01:48:32;;;;;;;18.77;10.37;;;3.00;99.90;;;;;;5088821;28;20203;-72
2022/01/07 01:50:58;;;;;;;18.37;9.60;;;3.10;99.90;;;;;;5089878;28;20689;-72
2022/01/07 01:53:25;;;;;;;16.50;9.87;;;3.10;99.90;;;;;;5086269;28;20191;-72
2022/01/07 01:55:54;;;;;;;19.57;9.73;;;3.10;99.90;;;;;;5088371;28;20564;-72
2022/01/07 01:58:20;;;;;;;16.83;9.70;;;3.10;99.90;;;;;;5082939;28;20203;-72
2022/01/07 02:00:45;;;;;;;14.07;9.07;;;3.10;99.90;;;;;;5089207;28;20307;-72
2022/01/07 02:03:11;;;;;;;19.40;10.07;;;3.10;99.90;;;;;;5079572;28;20191;-72
2022/01/07 02:05:37;;;;;;;17.97;10.23;;;3.00;99.90;;;;;;5081567;28;20237;-72
2022/01/07 02:08:03;;;;;;;21.77;10.63;;;3.00;99.90;;;;;;5081735;28;20208;-72
2022/01/07 02:10:29;;;;;;;19.03;9.97;;;3.00;99.90;;;;;;5088984;28;20184;-72
2022/01/07 02:12:55;;;;;;;19.30;10.47;;;3.00;99.90;;;;;;5086222;28;20216;-72
2022/01/07 02:15:21;;;;;;;19.17;9.90;;;3.00;99.90;;;;;;5086982;28;20718;-72
2022/01/07 02:17:49;;;;;;;18.73;9.97;;;3.00;99.90;;;;;;5086494;28;20292;-72
2022/01/07 02:20:17;;;;;;;16.37;9.63;;;3.00;99.90;;;;;;5087450;28;20633;-72
2022/01/07 02:22:43;;;;;;;19.43;10.33;;;3.00;99.90;;;;;;5085134;28;20201;-72
2022/01/07 02:25:10;;;;;;;15.77;9.43;;;3.00;99.90;;;;;;5087948;28;20176;-72
2022/01/07 02:27:42;;;;;;;18.37;10.60;;;3.00;99.90;;;;;;5087225;28;20204;-72
2022/01/07 02:30:10;;;;;;;17.83;10.00;;;3.00;99.90;;;;;;5082677;28;20606;-72
2022/01/07 02:32:37;;;;;;;19.17;10.73;;;3.00;99.90;;;;;;5084038;28;20234;-72
2022/01/07 02:35:04;;;;;;;20.37;10.90;;;3.00;99.90;;;;;;5085860;28;20215;-72
2022/01/07 02:37:30;;;;;;;15.77;9.53;;;3.00;99.90;;;;;;5086279;28;20193;-72
2022/01/07 02:39:55;;;;;;;15.57;10.60;;;3.00;99.90;;;;;;5081003;28;20193;-73
2022/01/07 02:42:21;;;;;;;21.70;10.10;;;3.00;99.90;;;;;;5082561;28;20180;-72
2022/01/07 02:44:47;;;;;;;21.97;10.37;;;3.10;99.90;;;;;;5087248;28;20212;-72
2022/01/07 02:47:13;;;;;;;16.67;9.90;;;3.10;99.90;;;;;;5087009;28;20660;-72
2022/01/07 02:49:39;;;;;;;19.63;10.87;;;3.10;99.90;;;;;;5087684;28;20263;-72
2022/01/07 02:52:05;;;;;;;15.57;9.63;;;3.10;99.90;;;;;;5087359;28;20621;-72
2022/01/07 02:54:31;;;;;;;18.37;9.30;;;3.10;99.90;;;;;;5086255;28;20234;-72
2022/01/07 02:56:57;;;;;;;18.13;9.90;;;3.10;99.90;;;;;;5085715;28;20641;-72
2022/01/07 02:59:22;;;;;;;17.17;9.40;;;3.10;99.90;;;;;;5088718;28;20199;-72
2022/01/07 03:01:48;;;;;;;16.83;9.90;;;3.10;99.90;;;;;;5084826;28;20176;-72
2022/01/07 03:04:14;;;;;;;17.90;10.50;;;3.10;99.90;;;;;;5088132;28;20200;-72
2022/01/07 03:06:40;;;;;;;17.10;9.40;;;3.10;99.90;;;;;;5086454;28;20185;-72
2022/01/07 03:09:06;;;;;;;19.50;10.37;;;3.10;99.90;;;;;;5090191;28;20284;-72
2022/01/07 03:11:33;;;;;;;17.17;9.97;;;3.10;99.90;;;;;;5091084;28;20287;-73
2022/01/07 03:13:59;;;;;;;17.10;10.00;;;3.10;99.90;;;;;;5090359;28;20782;-72
2022/01/07 03:16:25;;;;;;;22.90;10.43;;;3.10;99.90;;;;;;5089543;28;20253;-72
2022/01/07 03:18:51;;;;;;;17.50;9.87;;;3.20;99.90;;;;;;5087169;28;20193;-72
2022/01/07 03:21:17;;;;;;;18.17;9.70;;;3.20;99.90;;;;;;5089662;28;20249;-72
2022/01/07 03:23:44;;;;;;;19.40;10.63;;;3.20;99.90;;;;;;5092924;28;20200;-72
2022/01/07 03:26:10;;;;;;;21.53;10.83;;;3.10;99.90;;;;;;5087936;28;20226;-72
2022/01/07 03:28:36;;;;;;;20.80;10.30;;;3.20;99.90;;;;;;5090187;28;20207;-72
2022/01/07 03:31:03;;;;;;;16.83;9.87;;;3.20;99.90;;;;;;5091731;28;20184;-72
2022/01/07 03:33:28;;;;;;;17.17;10.50;;;3.20;99.90;;;;;;5085016;28;20268;-72
2022/01/07 03:35:54;;;;;;;15.33;10.30;;;3.20;99.90;;;;;;5091001;28;20303;-72
2022/01/07 03:38:20;;;;;;;20.10;10.93;;;3.20;99.90;;;;;;5086911;28;20196;-72
2022/01/07 03:40:47;;;;;;;19.97;11.53;;;3.20;99.90;;;;;;5088828;28;20187;-72
2022/01/07 03:43:13;;;;;;;22.20;11.93;;;3.20;99.90;;;;;;5060623;28;20670;-72
2022/01/07 03:45:39;;;;;;;22.57;12.00;;;3.20;99.90;;;;;;5091846;28;20253;-72
2022/01/07 03:48:05;;;;;;;19.10;11.47;;;3.20;99.90;;;;;;5090670;28;20683;-73
2022/01/07 03:50:31;;;;;;;20.57;10.87;;;3.30;99.90;;;;;;5088677;28;20176;-72
2022/01/07 03:52:58;;;;;;;21.17;9.83;;;3.20;99.90;;;;;;5085448;28;20229;-72
2022/01/07 03:55:28;;;;;;;15.07;8.97;;;3.30;99.90;;;;;;5088870;28;20208;-72
2022/01/07 03:57:53;;;;;;;12.03;8.43;;;3.30;99.90;;;;;;5089831;28;20671;-72
2022/01/07 04:00:33;;;;;;;17.27;9.57;;;3.20;99.90;;;;;;5088969;28;20179;-72
2022/01/07 04:03:05;;;;;;;17.37;8.90;;;3.20;99.90;;;;;;5088703;28;20196;-72
2022/01/07 04:05:31;;;;;;;13.77;8.10;;;3.20;99.90;;;;;;5090100;28;20185;-72
2022/01/07 04:07:57;;;;;;;15.33;8.27;;;3.30;99.90;;;;;;5069609;28;20272;-72
2022/01/07 04:10:22;;;;;;;19.03;8.07;;;3.20;99.90;;;;;;5087210;28;20242;-72
2022/01/07 04:12:48;;;;;;;13.87;8.20;;;3.20;99.90;;;;;;5082939;28;20769;-72
2022/01/07 04:15:16;;;;;;;12.60;7.90;;;3.20;99.90;;;;;;5085657;28;20211;-72
2022/01/07 04:17:48;;;;;;;13.07;7.57;;;3.20;99.90;;;;;;5088089;28;20197;-72
2022/01/07 04:20:16;;;;;;;13.67;7.70;;;3.20;99.90;;;;;;5089651;28;20193;-72
2022/01/07 04:22:42;;;;;;;14.27;7.70;;;3.20;99.90;;;;;;5087198;28;20185;-72
2022/01/07 04:25:17;;;;;;;14.43;7.57;;;3.10;99.90;;;;;;5090640;28;20514;-72
2022/01/07 04:27:49;;;;;;;13.97;8.07;;;3.10;99.90;;;;;;5080458;28;20296;-72
2022/01/07 04:30:15;;;;;;;12.50;7.50;;;3.00;99.90;;;;;;5086855;28;20195;-72
2022/01/07 04:32:42;;;;;;;15.47;9.47;;;3.00;99.90;;;;;;5082778;28;20188;-72
2022/01/07 04:35:11;;;;;;;16.40;9.73;;;3.00;99.90;;;;;;5085243;28;20785;-72
2022/01/07 04:37:37;;;;;;;15.60;9.47;;;3.00;99.90;;;;;;5085911;28;20200;-73
2022/01/07 04:40:10;;;;;;;16.37;9.90;;;3.00;99.90;;;;;;5089406;28;20179;-72
2022/01/07 04:42:36;;;;;;;17.00;10.03;;;3.00;99.90;;;;;;5088897;28;20281;-73
2022/01/07 04:45:03;;;;;;;15.30;8.33;;;3.00;99.90;;;;;;5079114;28;20226;-72
2022/01/07 04:47:31;;;;;;;14.53;8.30;;;3.00;99.90;;;;;;5088722;28;20185;-72
2022/01/07 04:49:57;;;;;;;13.43;8.20;;;2.90;99.90;;;;;;5085613;28;20191;-73
2022/01/07 04:52:23;;;;;;;14.47;8.40;;;2.90;99.90;;;;;;5088032;28;20180;-72
2022/01/07 04:54:49;;;;;;;16.37;10.13;;;2.90;99.90;;;;;;5082912;28;20217;-72
2022/01/07 04:57:15;;;;;;;16.73;10.43;;;2.80;99.90;;;;;;5089761;28;20183;-72
2022/01/07 04:59:40;;;;;;;19.77;11.13;;;2.80;99.90;;;;;;5086791;28;20173;-72
2022/01/07 05:02:06;;;;;;;19.37;11.63;;;2.80;99.90;;;;;;5087912;28;20201;-72
2022/01/07 05:04:32;;;;;;;23.47;11.57;;;2.70;99.90;;;;;;5087925;28;20176;-72
2022/01/07 05:06:58;;;;;;;16.60;10.40;;;2.70;99.90;;;;;;5089369;28;20264;-72
2022/01/07 05:09:24;;;;;;;18.03;11.27;;;2.70;99.90;;;;;;5084220;28;20204;-72
2022/01/07 05:11:52;;;;;;;19.10;11.47;;;2.70;99.90;;;;;;5082540;28;20214;-72
2022/01/07 05:14:18;;;;;;;20.43;10.87;;;2.60;99.90;;;;;;5082547;28;20188;-72
2022/01/07 05:16:44;;;;;;;16.47;11.10;;;2.60;99.90;;;;;;5072156;28;20267;-72
2022/01/07 05:19:10;;;;;;;19.33;11.57;;;2.60;99.90;;;;;;5089224;28;20241;-73
2022/01/07 05:21:37;;;;;;;17.83;10.70;;;2.60;99.90;;;;;;5086483;28;20264;-72
2022/01/07 05:24:04;;;;;;;18.67;11.23;;;2.60;99.90;;;;;;5085716;28;20181;-72
2022/01/07 05:26:30;;;;;;;20.00;11.30;;;2.60;99.90;;;;;;5084760;28;20176;-72
2022/01/07 05:28:56;;;;;;;19.73;11.20;;;2.60;99.90;;;;;;5081884;28;20201;-72
2022/01/07 05:31:22;;;;;;;18.40;11.13;;;2.60;99.90;;;;;;5088439;28;20183;-72
2022/01/07 05:33:53;;;;;;;20.73;11.73;;;2.60;99.90;;;;;;5085851;28;20183;-72
2022/01/07 05:36:20;;;;;;;24.67;11.77;;;2.70;99.90;;;;;;5089309;28;20254;-73
2022/01/07 05:38:46;;;;;;;19.63;12.03;;;2.70;99.90;;;;;;5084255;28;20196;-73
2022/01/07 05:41:13;;;;;;;18.73;11.67;;;2.70;99.90;;;;;;5087482;28;20187;-73
2022/01/07 05:43:39;;;;;;;22.17;12.33;;;2.70;99.90;;;;;;5079262;28;20225;-72
2022/01/07 05:46:05;;;;;;;22.73;12.63;;;2.70;99.90;;;;;;5085891;28;20188;-72
2022/01/07 05:48:32;;;;;;;19.87;12.80;;;2.70;99.90;;;;;;5082053;28;20193;-72
2022/01/07 05:50:58;;;;;;;25.80;14.03;;;2.70;99.90;;;;;;5081178;28;20188;-72
2022/01/07 05:53:23;;;;;;;23.30;13.53;;;2.80;99.90;;;;;;5084184;28;20546;-72
2022/01/07 05:55:49;;;;;;;21.60;13.60;;;2.80;99.90;;;;;;5088400;28;20208;-72
2022/01/07 05:58:15;;;;;;;21.77;13.33;;;2.80;99.90;;;;;;5081363;28;20220;-72
2022/01/07 06:00:41;;;;;;;24.00;13.57;;;2.80;99.90;;;;;;5088654;28;20169;-72
2022/01/07 06:03:06;;;;;;;21.43;12.57;;;2.90;99.90;;;;;;5086397;28;20188;-72
2022/01/07 06:05:32;;;;;;;23.93;13.60;;;2.90;99.90;;;;;;5062442;28;20185;-72
2022/01/07 06:07:58;;;;;;;23.10;14.13;;;2.80;99.90;;;;;;5078877;28;20236;-72
2022/01/07 06:10:24;;;;;;;21.20;13.33;;;2.90;99.90;;;;;;5086043;28;20185;-72
2022/01/07 06:12:50;;;;;;;19.63;12.90;;;2.90;99.90;;;;;;5084877;28;20188;-72
2022/01/07 06:15:15;;;;;;;19.43;12.13;;;2.80;99.90;;;;;;5084765;28;20575;-72
2022/01/07 06:17:41;;;;;;;22.50;13.07;;;2.90;99.90;;;;;;5082284;28;20713;-72
2022/01/07 06:20:08;;;;;;;22.87;13.33;;;2.90;99.90;;;;;;5087327;28;20193;-72
2022/01/07 06:22:34;;;;;;;25.80;13.27;;;2.90;99.90;;;;;;5087754;28;20206;-72
2022/01/07 06:25:01;;;;;;;19.60;12.73;;;2.90;99.90;;;;;;5086736;28;20196;-72
2022/01/07 06:27:28;;;;;;;21.20;12.53;;;3.00;99.90;;;;;;5086024;28;20212;-75
2022/01/07 06:29:54;;;;;;;20.50;11.80;;;3.00;99.90;;;;;;5084056;28;20235;-73
2022/01/07 06:32:20;;;;;;;23.20;12.80;;;3.00;99.90;;;;;;5084107;28;20176;-74
2022/01/07 06:34:46;;;;;;;18.10;11.83;;;3.00;99.90;;;;;;5085595;28;20207;-74
2022/01/07 06:37:12;;;;;;;21.73;11.43;;;2.90;99.90;;;;;;5088254;28;20180;-73
2022/01/07 06:39:37;;;;;;;18.43;12.80;;;3.00;99.90;;;;;;5085848;28;20200;-73
2022/01/07 06:42:04;;;;;;;21.20;13.17;;;3.00;99.90;;;;;;5091038;28;20172;-73
2022/01/07 06:44:30;;;;;;;19.43;12.87;;;3.00;99.90;;;;;;5083004;28;20207;-73
2022/01/07 06:46:56;;;;;;;18.33;11.53;;;3.00;99.90;;;;;;5087032;28;20579;-74
2022/01/07 06:49:22;;;;;;;19.93;11.50;;;3.00;99.90;;;;;;5069863;28;20757;-73
2022/01/07 06:51:48;;;;;;;18.07;11.70;;;3.00;99.90;;;;;;5089155;28;20180;-73
2022/01/07 06:54:13;;;;;;;20.70;11.63;;;3.00;99.90;;;;;;5091311;28;20240;-73
2022/01/07 06:56:43;;;;;;;17.07;11.63;;;3.00;99.90;;;;;;5085686;28;20208;-73
2022/01/07 06:59:12;;;;;;;19.63;12.50;;;3.00;99.90;;;;;;5086390;28;20215;-73
2022/01/07 07:01:39;;;;;;;23.17;11.83;;;3.00;99.90;;;;;;5090334;28;20711;-75
2022/01/07 07:04:05;;;;;;;16.43;11.27;;;3.00;99.90;;;;;;5093059;28;20752;-73
2022/01/07 07:06:31;;;;;;;16.93;10.73;;;3.00;99.90;;;;;;5091558;28;20215;-73
2022/01/07 07:08:57;;;;;;;19.20;12.23;;;3.00;99.90;;;;;;5091880;28;20671;-73
2022/01/07 07:11:22;;;;;;;19.33;11.43;;;3.00;99.90;;;;;;5092030;28;20685;-73
2022/01/07 07:13:48;;;;;;;17.67;11.57;;;3.10;99.90;;;;;;5092421;28;20195;-73
2022/01/07 07:16:15;;;;;;;18.13;11.33;;;3.10;99.90;;;;;;5091470;28;20287;-73
2022/01/07 07:18:41;;;;;;;16.80;11.63;;;3.10;99.90;;;;;;5091052;28;20204;-74
2022/01/07 07:21:07;;;;;;;18.17;11.60;;;3.10;99.90;;;;;;5091896;28;20510;-74
2022/01/07 07:23:32;;;;;;;19.80;11.53;;;3.10;99.90;;;;;;5092236;28;20187;-73
2022/01/07 07:25:58;;;;;;;19.53;11.07;;;3.10;99.90;;;;;;5083310;28;20193;-73
2022/01/07 07:28:24;;;;;;;18.03;11.50;;;3.10;99.90;;;;;;5086822;28;20258;-72
2022/01/07 07:30:52;;;;;;;21.73;12.67;;;3.00;99.90;;;;;;5062015;28;20191;-74
2022/01/07 07:38:35;;;;;;;19.57;12.57;;;3.10;99.90;;;;;;5080592;28;20199;-74
2022/01/07 07:41:01;;;;;;;22.90;12.63;;;3.10;99.90;;;;;;5085672;28;20633;-73
2022/01/07 07:43:26;;;;;;;18.43;11.63;;;3.10;99.90;;;;;;5092778;28;20207;-73
2022/01/07 07:45:52;;;;;;;18.33;11.10;;;3.10;99.90;;;;;;5088358;28;20188;-73
2022/01/07 07:48:18;;;;;;;17.27;11.10;;;3.20;99.90;;;;;;5090772;28;20205;-73
2022/01/07 07:50:44;;;;;;;20.27;12.13;;;3.20;99.90;;;;;;5072726;28;20208;-73
2022/01/07 07:53:10;;;;;;;17.20;11.33;;;3.20;99.90;;;;;;5089154;28;20265;-76
2022/01/07 07:55:36;;;;;;;19.93;11.97;;;3.20;99.90;;;;;;5072543;28;20264;-74
2022/01/07 07:58:01;;;;;;;19.93;12.00;;;3.20;99.90;;;;;;5086056;28;20185;-74
2022/01/07 08:00:27;;;;;;;21.77;12.37;;;3.30;99.90;;;;;;5087459;28;20173;-73
2022/01/07 08:02:53;;;;;;;18.93;11.90;;;3.20;99.90;;;;;;5087531;28;20584;-73
2022/01/07 08:05:19;;;;;;;19.93;12.00;;;3.30;99.90;;;;;;5087088;28;20229;-73
2022/01/07 08:07:45;;;;;;;18.97;11.90;;;3.30;99.90;;;;;;5087346;28;20254;-74
2022/01/07 08:10:11;;;;;;;21.47;12.77;;;3.30;99.90;;;;;;5086501;28;20786;-73
2022/01/07 08:13:14;;;;;;;21.23;12.90;;;3.30;99.90;;;;;;5090325;28;20181;-72
2022/01/07 08:18:24;;;;;;;18.33;12.27;;;3.30;99.90;;;;;;5087234;28;20201;-74
2022/01/07 08:20:51;;;;;;;19.47;11.90;;;3.20;99.90;;;;;;5088254;28;20381;-74
2022/01/07 08:23:18;;;;;;;19.23;12.63;;;3.20;99.90;;;;;;5084639;28;20767;-74
2022/01/07 08:25:44;;;;;;;21.73;11.70;;;3.20;99.90;;;;;;5086513;28;20233;-73
2022/01/07 08:28:12;;;;;;;19.77;12.53;;;3.20;99.90;;;;;;5086576;28;20188;-74
2022/01/07 08:30:58;;;;;;;24.03;14.00;;;3.10;99.90;;;;;;5072182;28;20749;-74
2022/01/07 08:36:08;;;;;;;22.20;12.03;;;3.10;99.90;;;;;;5088053;28;20204;-77
2022/01/07 08:38:34;;;;;;;23.30;12.60;;;3.10;99.90;;;;;;5087416;28;20203;-73
2022/01/07 08:41:01;;;;;;;17.53;11.73;;;3.00;99.90;;;;;;5085898;28;20196;-75
2022/01/07 08:43:26;;;;;;;19.17;12.70;;;2.90;99.90;;;;;;5067240;28;20204;-75
2022/01/07 08:45:52;;;;;;;18.23;11.43;;;2.90;99.90;;;;;;5084351;28;20260;-72
2022/01/07 08:48:18;;;;;;;20.00;12.77;;;2.90;99.90;;;;;;5084709;28;20202;-74
2022/01/07 08:50:44;;;;;;;26.30;16.23;;;2.90;99.90;;;;;;5087477;28;20189;-71
2022/01/07 08:53:11;;;;;;;21.03;12.70;;;2.90;99.90;;;;;;5087148;28;20183;-71
2022/01/07 08:55:37;;;;;;;21.20;13.17;;;2.90;99.90;;;;;;5084790;28;20859;-71
2022/01/07 08:58:03;;;;;;;22.40;13.77;;;3.00;99.90;;;;;;5083712;28;20188;-71
2022/01/07 09:00:30;;;;;;;23.30;13.73;;;2.90;99.90;;;;;;5089165;28;20176;-71
2022/01/07 09:02:56;;;;;;;18.80;12.00;;;3.00;99.90;;;;;;5085037;28;20209;-71
2022/01/07 09:05:21;;;;;;;21.43;13.60;;;3.00;99.90;;;;;;5088316;28;20471;-71
2022/01/07 09:07:47;;;;;;;19.27;13.13;;;3.00;99.90;;;;;;5090836;28;20228;-71
2022/01/07 09:10:13;;;;;;;17.17;11.50;;;3.00;99.90;;;;;;5090166;28;20176;-73
2022/01/07 09:12:39;;;;;;;17.30;11.80;;;3.00;99.90;;;;;;5090311;28;20183;-72
2022/01/07 09:15:05;;;;;;;18.47;11.03;;;3.00;99.90;;;;;;5086358;28;20199;-74
2022/01/07 09:17:35;;;;;;;19.23;12.97;;;3.00;99.90;;;;;;5089248;28;20259;-72
2022/01/07 09:20:01;;;;;;;19.70;12.67;;;3.00;99.90;;;;;;5088276;28;20207;-71
2022/01/07 09:22:27;;;;;;;14.77;10.13;;;3.10;99.90;;;;;;5089595;28;20173;-71
2022/01/07 09:24:53;;;;;;;19.33;10.63;;;3.10;99.90;;;;;;5082649;28;20180;-71
2022/01/07 09:27:19;;;;;;;16.87;10.20;;;3.20;99.90;;;;;;5082071;28;20184;-71
2022/01/07 09:29:45;;;;;;;17.50;10.47;;;3.20;99.90;;;;;;5080677;28;20287;-71
2022/01/07 09:32:12;;;;;;;16.07;10.43;;;3.30;99.90;;;;;;5084028;28;20240;-71
2022/01/07 09:34:38;;;;;;;17.83;10.03;;;3.40;99.90;;;;;;5087427;28;20292;-71
2022/01/07 09:37:05;;;;;;;16.90;11.07;;;3.30;99.90;;;;;;5085174;28;20267;-73
2022/01/07 09:39:32;;;;;;;14.37;9.83;;;3.40;99.90;;;;;;5085478;28;20208;-72
2022/01/07 09:42:02;;;;;;;17.40;10.20;;;3.40;99.90;;;;;;5084804;28;20250;-72
2022/01/07 09:44:29;;;;;;;17.80;10.13;;;3.40;99.90;;;;;;5082183;28;20553;-71
2022/01/07 09:46:54;;;;;;;13.90;9.77;;;3.40;99.90;;;;;;5084154;28;20179;-71
2022/01/07 09:49:20;;;;;;;17.87;10.33;;;3.40;99.90;;;;;;5085855;28;20185;-71
2022/01/07 09:51:46;;;;;;;15.00;9.07;;;3.40;99.90;;;;;;5085089;28;20743;-72
2022/01/07 09:54:12;;;;;;;16.83;10.83;;;3.40;99.90;;;;;;5087408;28;20184;-71
2022/01/07 09:56:39;;;;;;;17.87;12.30;;;3.40;99.90;;;;;;5086225;28;20569;-72
2022/01/07 09:59:07;;;;;;;15.27;9.93;;;3.40;99.90;;;;;;5086708;28;20727;-71
2022/01/07 10:02:02;;;;;;;13.80;9.20;;;3.50;99.90;;;;;;5086270;28;20264;-72
2022/01/07 10:04:30;;;;;;;15.20;8.87;;;3.50;99.90;;;;;;5086295;28;20184;-72
2022/01/07 10:07:10;;;;;;;19.83;11.77;;;3.50;99.90;;;;;;5084703;28;20192;-72
2022/01/07 10:09:38;;;;;;;16.90;10.53;;;3.60;99.90;;;;;;5082611;28;20226;-72
2022/01/07 10:12:04;;;;;;;13.40;8.90;;;3.60;99.90;;;;;;5084039;28;20238;-72
2022/01/07 10:14:30;;;;;;;15.27;8.60;;;3.60;99.90;;;;;;5087900;28;20181;-72
2022/01/07 10:16:57;;;;;;;14.33;8.60;;;3.60;99.90;;;;;;5087434;28;20176;-72
2022/01/07 10:19:41;;;;;;;14.00;8.53;;;3.70;99.90;;;;;;5085016;28;20198;-72
2022/01/07 10:22:10;;;;;;;13.57;8.77;;;3.70;99.90;;;;;;5085603;28;20184;-72
2022/01/07 10:24:59;;;;;;;16.10;9.13;;;3.70;99.90;;;;;;5083456;28;20180;-72
2022/01/07 10:27:39;;;;;;;13.37;7.67;;;3.70;99.90;;;;;;5084711;28;20180;-72
2022/01/07 10:30:13;;;;;;;12.00;8.40;;;3.70;99.90;;;;;;5085917;28;20247;-72
2022/01/07 10:32:39;;;;;;;13.57;8.37;;;3.70;99.90;;;;;;5088383;28;20183;-71
2022/01/07 10:35:13;;;;;;;13.87;8.03;;;3.70;99.90;;;;;;5088096;28;20196;-72
2022/01/07 10:37:51;;;;;;;12.30;8.20;;;3.60;99.90;;;;;;5086141;28;20191;-72
2022/01/07 10:40:31;;;;;;;13.77;8.57;;;3.60;99.90;;;;;;5086928;28;20176;-72
2022/01/07 10:43:12;;;;;;;14.27;8.87;;;3.50;99.90;;;;;;5081698;28;20203;-72
2022/01/07 10:45:40;;;;;;;18.73;10.13;;;3.60;99.90;;;;;;5079758;28;20192;-72
2022/01/07 10:48:09;;;;;;;13.27;7.90;;;3.60;99.90;;;;;;5064115;28;20668;-72
2022/01/07 10:50:45;;;;;;;11.73;8.60;;;3.60;99.90;;;;;;5064287;28;20576;-72
2022/01/07 10:53:18;;;;;;;16.03;8.90;;;3.70;99.90;;;;;;5081379;28;20180;-72
2022/01/07 10:56:19;;;;;;;10.53;7.13;;;3.80;99.90;;;;;;5078197;28;20220;-71
2022/01/07 10:58:50;;;;;;;11.80;8.43;;;3.80;99.90;;;;;;5080139;28;20307;-71
2022/01/07 11:01:19;;;;;;;13.27;8.37;;;3.80;99.90;;;;;;5079561;28;20264;-72
2022/01/07 11:03:46;;;;;;;14.83;8.80;;;3.80;99.90;;;;;;5080490;28;20241;-72
2022/01/07 11:06:12;;;;;;;14.97;9.20;;;3.70;99.90;;;;;;5076732;28;20237;-72
2022/01/07 11:08:40;;;;;;;12.73;8.10;;;3.70;99.90;;;;;;5085770;28;20682;-72
2022/01/07 11:11:06;;;;;;;12.40;8.30;;;3.70;99.90;;;;;;5056393;28;20958;-72
2022/01/07 11:13:34;;;;;;;15.07;9.20;;;3.60;99.90;;;;;;5085071;28;20243;-71
2022/01/07 11:16:03;;;;;;;12.50;8.17;;;3.60;99.90;;;;;;5085289;28;20295;-71
2022/01/07 11:18:29;;;;;;;16.33;7.90;;;3.60;99.90;;;;;;5086140;28;20220;-72
2022/01/07 11:20:58;;;;;;;13.03;8.60;;;3.60;99.90;;;;;;5086214;28;20596;-73
2022/01/07 11:23:28;;;;;;;15.03;8.60;;;3.60;99.90;;;;;;5085241;28;20242;-71
2022/01/07 11:26:04;;;;;;;11.23;7.57;;;3.60;99.90;;;;;;5086345;28;20196;-72
2022/01/07 11:28:31;;;;;;;10.63;8.07;;;3.60;99.90;;;;;;5085774;28;20349;-71
2022/01/07 11:31:11;;;;;;;13.10;8.03;;;3.60;99.90;;;;;;5086007;28;20223;-72
2022/01/07 11:33:37;;;;;;;12.20;8.23;;;3.70;99.90;;;;;;5084356;28;20178;-71
2022/01/07 11:36:04;;;;;;;13.47;8.63;;;3.70;99.90;;;;;;5088505;28;20204;-72
2022/01/07 11:38:42;;;;;;;10.97;7.77;;;3.70;99.90;;;;;;5087854;28;20615;-72
2022/01/07 11:41:14;;;;;;;14.43;8.20;;;3.70;99.90;;;;;;5090439;28;20720;-72
2022/01/07 11:43:49;;;;;;;11.90;8.57;;;3.70;99.90;;;;;;5087239;28;20184;-71
2022/01/07 11:46:27;;;;;;;13.53;7.80;;;3.70;99.90;;;;;;5089898;28;20176;-71
2022/01/07 11:48:55;;;;;;;11.23;7.03;;;3.70;99.90;;;;;;5089292;28;20223;-71
2022/01/07 11:51:21;;;;;;;12.90;7.57;;;3.70;99.90;;;;;;5090514;28;20256;-72
2022/01/07 11:53:50;;;;;;;13.07;7.57;;;3.70;99.90;;;;;;5088402;28;20216;-71
2022/01/07 11:56:23;;;;;;;12.07;7.87;;;3.70;99.90;;;;;;5088790;28;20204;-72
2022/01/07 11:58:55;;;;;;;14.03;7.87;;;3.80;99.90;;;;;;5088648;28;20839;-72
2022/01/07 12:01:31;;;;;;;13.10;8.13;;;3.80;99.90;;;;;;5089761;28;20173;-73
2022/01/07 12:04:13;;;;;;;12.17;8.10;;;3.90;99.90;;;;;;5085388;28;20207;-74
2022/01/07 12:06:38;;;;;;;14.30;8.60;;;3.90;99.90;;;;;;5088876;28;20188;-72
2022/01/07 12:09:06;;;;;;;13.17;8.53;;;3.90;99.90;;;;;;5090807;28;20749;-73
2022/01/07 12:11:40;;;;;;;12.70;8.40;;;3.80;99.90;;;;;;5089848;28;20519;-71
2022/01/07 12:14:22;;;;;;;10.70;7.90;;;3.80;99.90;;;;;;5088277;28;20180;-72
2022/01/07 12:16:50;;;;;;;12.63;8.50;;;3.80;99.90;;;;;;5087928;28;20199;-71
2022/01/07 12:19:23;;;;;;;13.20;8.57;;;3.80;99.90;;;;;;5087331;28;20216;-71
2022/01/07 12:21:52;;;;;;;14.40;8.23;;;3.90;99.90;;;;;;5090064;28;20192;-71
2022/01/07 12:24:22;;;;;;;13.03;8.17;;;3.90;99.90;;;;;;5089576;28;20203;-73
2022/01/07 12:27:08;;;;;;;12.23;8.20;;;3.90;99.90;;;;;;5089975;28;20183;-73
2022/01/07 12:29:46;;;;;;;13.33;8.70;;;3.90;99.90;;;;;;5087503;28;20585;-72
2022/01/07 12:32:14;;;;;;;16.17;9.10;;;3.90;99.90;;;;;;5088429;28;20736;-72
2022/01/07 12:34:45;;;;;;;11.47;7.97;;;3.90;99.90;;;;;;5087050;28;20230;-74
2022/01/07 12:37:16;;;;;;;13.77;8.50;;;3.80;99.90;;;;;;5087707;28;20180;-71
2022/01/07 12:39:57;;;;;;;14.43;8.77;;;3.80;99.90;;;;;;5085313;28;20179;-72
2022/01/07 12:42:28;;;;;;;13.13;8.70;;;3.90;99.90;;;;;;5084834;28;20256;-72
2022/01/07 12:44:57;;;;;;;14.90;8.93;;;3.90;99.90;;;;;;5086250;28;20568;-72
2022/01/07 12:47:29;;;;;;;14.73;10.00;;;3.90;99.90;;;;;;5089636;28;20664;-72
2022/01/07 12:50:04;;;;;;;13.00;9.07;;;3.90;99.90;;;;;;5089339;28;20184;-72
2022/01/07 12:52:37;;;;;;;12.90;9.13;;;3.90;99.90;;;;;;5087832;28;20184;-71
2022/01/07 12:55:20;;;;;;;12.20;8.60;;;3.90;99.90;;;;;;5087827;28;20196;-72